Aérodrome :
LOGIN :

S'inscrire | Disclaimer

   EN    FR    IT 

 










Légende :    VFR   VFR Marginal   IFR   IFR Intensif   IFR Très Intensif
Visi : 
Plafond : 
>= 8 km
>= 3000ft
5 à 8 km
1000 à 3000 ft
1500m à 5 km
500 à 1000 ft
800 à 1500m
200 à 500 ft
< 800m
< 200 ft
Symboles :   Orages  Brouillard  Fortes neiges  Fortes précipitations  Vent > 20 kt
SIGMETs :   Divers  Orages  Givrage  Turbulence  Onde Orograph.  Cendres Volcan.






- Altitude de l'aérodrome : 405 ft
- Code IATA : ODH


EGVO - RAF Odiham

DERNIER METAR :
  • 230220Z AUTO 23007KT 9999 // OVC006/// 17/16 Q1014

METARs EXPIRÉS :
  • 230150Z AUTO 22006KT 9999 +DZ OVC003/// 17/16 Q1014
  • 230120Z AUTO 22008KT 3800 DZ OVC004/// 17/16 Q1014
  • 230050Z AUTO 22007KT 3000 DZ OVC003/// 17/16 Q1014
  • 230020Z AUTO 21006KT 2700 -DZ OVC003/// 17/16 Q1015
  • 222350Z AUTO 22008KT 9999 OVC007/// 17/16 Q1015
  • 222320Z AUTO 22008KT 9999 OVC007/// 18/16 Q1015
  • 222250Z AUTO 22009KT 9999 OVC007/// 18/16 Q1015
  • 222220Z AUTO 22008KT 9999 OVC009/// 17/15 Q1015
  • 222150Z AUTO 22008KT 9999 OVC010/// 17/15 Q1015

TAF TAF EGVO
Valide du 22 à 21h jusqu'au 23 à 09h UTC


221958Z 2221/2309 25010KT 9999 SCT025
PROB40
TEMPO 2221/2222 SCT018
PROB30
TEMPO 2221/2222 SCT012
BECMG 2222/2301 BKN007
PROB30
TEMPO 2222/2301 7000 -RADZ
TEMPO 2301/2306 6000 -RADZ BKN005
PROB30
TEMPO 2301/2306 3500 DZ SHRA SCT004
BECMG 2306/2309 BKN025



MET'MAP, la Météo Aéronautique d'un coup d'oeil ! - Copyright ORBIFLY Décembre 2007 - Disclaimer

ORBIFLY MET'MAP TEAM :

Programmation & Développement : Alexandra Zaïnal
Sur une idée originale de : Baudouin d'Aumeries
Soutien technique & logistique : Manuel Goepfert
Assistance : Marc-Olivier Méhu




SOURCES & CREDITS :

   NOAA